Mount Crawford, VA (22841)

3:10 PM EDT on August 29, 2015 (GMT -0400)
Mount Crawford | | Change Station
CLOSE
Current Station
Personal Weather Station
Location: Mount Crawford, VA
Elevation: 1210 ft
Nearby Weather Stations

Elev 1210 ft 38.36 °N, 78.94 °W | Updated 7 seconds ago

Partly Cloudy
Partly Cloudy
87.8 °F
Feels Like 86 °F
N
4.5
Wind Variable Wind from West
Gusts 6.2 mph

Today
High -- | Low -- °F
--% Chance of Precip.
Yesterday
High -- | Low -- °F
Precip. -- in
6:42 AM 7:50 PM
Full, 100% visible
Pressure 30.17 in
Visibility 10.0 miles
Clouds Scattered Clouds 7000 ft
Heat Index 86 °F
Dew Point 54 °F
Humidity 32%
Rainfall 0.00 in
Snow Depth Not available.
UV 7 out of 12
Pollen 9.40 out of 12
Air Quality Not available.
Flu Activity Not available.
METAR KSHD 291855Z AUTO 21008KT 10SM SCT070 32/11 A3017 RMK AO2 T03180108
Pressure 30.17 in
Visibility 10.0 miles
Clouds Scattered Clouds 7000 ft
Heat Index 86 °F
Dew Point 54 °F
Humidity 32%
Rainfall 0.00 in
Snow Depth Not available.
UV 7 out of 12
Pollen 9.40 out of 12
Air Quality Not available.
Flu Activity Not available.
METAR KSHD 291855Z AUTO 21008KT 10SM SCT070 32/11 A3017 RMK AO2 T03180108

10-Day Weather Forecast

×

Almanac

Astronomy

Aug. 29, 2015 Rise Set
Actual Time
Civil Twilight
Nautical Twilight
Astronomical Twilight
Moon
Length of Visible Light
Length of Day
Tomorrow will be .
, % of the Moon is Illuminated

Today's Extremes

State Highs State Lows

Community

WunderPhotos

Upload Photos

1,850,778 photos uploaded!

WunderBlogs® & News

Nearby

Air Quality

  Air Quality AQ Index Pollutant
Not available.

Snow Depth

Station Depth Elevation

Earthquake Activity

City Distance Mag. Time & Date
Minimum magnitude displayed is 2.5.

Coastal Water Temperatures

Place Temperature

Stations

Nearby Weather Stations

Station Location Temp. Windchill Dew Point Humidity Wind Precip. Elev Updated Type